Time;durP1;ratioP1;P1;durP2;ratioP2;P2;SDS_P1;SDS_P2;PMS_P1;PMS_P2;Temp;Humidity;BMP_temperature;BMP_pressure;BME280_temperature;BME280_humidity;BME280_pressure;Samples;Min_cycle;Max_cycle;Signal;HPM_P1;HPM_P2
2021/01/14 00:00:35;;;;;;;10.00;3.80;;;1.50;99.90;;;;;;5059793;28;20222;-84
2021/01/14 00:03:04;;;;;;;11.70;3.80;;;1.60;99.90;;;;;;5054327;28;20218;-85
2021/01/14 00:05:30;;;;;;;8.57;2.93;;;1.50;99.90;;;;;;5054291;28;20196;-85
2021/01/14 00:07:55;;;;;;;10.40;3.93;;;1.50;99.90;;;;;;5053815;28;20247;-85
2021/01/14 00:10:23;;;;;;;10.53;3.87;;;1.50;99.90;;;;;;5054415;28;20542;-84
2021/01/14 00:12:49;;;;;;;10.63;3.37;;;1.50;99.90;;;;;;5053868;28;20179;-84
2021/01/14 00:15:16;;;;;;;11.43;3.77;;;1.60;99.90;;;;;;5053807;28;20286;-85
2021/01/14 00:17:43;;;;;;;9.90;3.80;;;1.60;99.90;;;;;;5055133;28;20179;-84
2021/01/14 00:20:20;;;;;;;10.83;3.23;;;1.50;99.90;;;;;;5053643;28;20277;-85
2021/01/14 00:22:46;;;;;;;12.93;4.23;;;1.50;99.90;;;;;;5053572;28;20203;-84
2021/01/14 00:25:14;;;;;;;12.07;4.70;;;1.40;99.90;;;;;;5054080;28;20205;-84
2021/01/14 00:27:40;;;;;;;11.80;3.87;;;1.40;99.90;;;;;;5053869;28;20213;-84
2021/01/14 00:30:09;;;;;;;9.60;3.80;;;1.40;99.90;;;;;;5053799;28;20645;-84
2021/01/14 00:32:34;;;;;;;11.90;4.20;;;1.40;99.90;;;;;;5054015;28;20672;-86
2021/01/14 00:35:00;;;;;;;12.33;4.10;;;1.50;99.90;;;;;;5054883;28;20203;-85
2021/01/14 00:40:10;;;;;;;13.70;5.10;;;1.40;99.90;;;;;;5056952;28;20174;-85
2021/01/14 00:42:35;;;;;;;10.83;3.40;;;1.40;99.90;;;;;;5054856;28;20199;-85
2021/01/14 00:45:01;;;;;;;10.30;3.97;;;1.40;99.90;;;;;;5053294;28;20278;-84
2021/01/14 00:47:27;;;;;;;8.40;3.40;;;1.40;99.90;;;;;;5053353;28;20172;-85
2021/01/14 00:49:52;;;;;;;9.57;3.27;;;1.40;99.90;;;;;;5053563;28;20168;-84
2021/01/14 00:52:17;;;;;;;9.07;3.30;;;1.40;99.90;;;;;;5053435;28;20270;-84
2021/01/14 00:54:43;;;;;;;10.87;4.07;;;1.50;99.90;;;;;;5053430;28;20231;-84
2021/01/14 00:57:10;;;;;;;10.77;3.40;;;1.50;99.90;;;;;;5054493;28;20184;-85
2021/01/14 00:59:38;;;;;;;11.40;4.20;;;1.50;99.90;;;;;;5057392;28;20266;-85
2021/01/14 01:02:05;;;;;;;8.83;2.87;;;1.60;99.90;;;;;;5056848;28;20685;-85
2021/01/14 01:04:30;;;;;;;10.30;3.67;;;1.70;99.90;;;;;;5057093;28;20258;-85
2021/01/14 01:06:56;;;;;;;12.67;3.97;;;1.70;99.90;;;;;;5056438;28;20175;-85
2021/01/14 01:09:23;;;;;;;9.17;3.67;;;1.70;99.90;;;;;;5056800;28;20276;-86
2021/01/14 01:11:49;;;;;;;11.43;3.40;;;1.80;99.90;;;;;;5057202;28;20239;-85
2021/01/14 01:14:14;;;;;;;11.10;3.43;;;1.70;99.90;;;;;;5057300;28;20261;-85
2021/01/14 01:16:40;;;;;;;7.27;3.20;;;1.70;99.90;;;;;;5060143;28;20184;-86
2021/01/14 01:19:05;;;;;;;8.17;3.00;;;1.70;99.90;;;;;;5054344;28;20179;-85
2021/01/14 01:21:31;;;;;;;9.07;2.77;;;1.70;99.90;;;;;;5053389;28;20271;-84
2021/01/14 01:23:56;;;;;;;11.00;3.63;;;1.70;99.90;;;;;;5054256;28;20211;-84
2021/01/14 01:26:22;;;;;;;8.00;3.00;;;1.70;99.90;;;;;;5052265;28;20635;-84
2021/01/14 01:28:47;;;;;;;11.47;3.37;;;1.70;99.90;;;;;;5052029;28;20172;-85
2021/01/14 01:31:14;;;;;;;9.23;3.07;;;1.80;99.90;;;;;;5054148;28;20262;-87
2021/01/14 01:33:41;;;;;;;7.40;2.40;;;1.90;99.90;;;;;;5066043;28;20266;-85
2021/01/14 01:36:08;;;;;;;7.40;3.00;;;1.90;99.90;;;;;;5065303;28;20246;-85
2021/01/14 01:38:35;;;;;;;9.13;3.10;;;1.80;99.90;;;;;;5065068;28;20183;-86
2021/01/14 01:41:01;;;;;;;9.63;3.13;;;1.90;99.90;;;;;;5068909;28;20238;-86
2021/01/14 01:43:28;;;;;;;10.37;3.63;;;1.90;99.90;;;;;;5066640;28;20207;-86
2021/01/14 01:45:54;;;;;;;9.73;3.30;;;1.90;99.90;;;;;;5067720;28;20245;-85
2021/01/14 01:48:21;;;;;;;12.43;3.10;;;1.90;99.90;;;;;;5061710;28;20182;-85
2021/01/14 01:50:48;;;;;;;7.00;2.83;;;2.00;99.90;;;;;;5061996;28;20261;-86
2021/01/14 01:53:14;;;;;;;14.70;3.57;;;1.90;99.90;;;;;;5063080;28;20218;-86
2021/01/14 01:55:43;;;;;;;11.40;3.10;;;1.90;99.90;;;;;;5061257;28;20195;-86
2021/01/14 01:58:10;;;;;;;12.37;3.80;;;2.00;99.90;;;;;;5062043;28;20183;-85
2021/01/14 02:00:36;;;;;;;8.47;3.20;;;1.90;99.90;;;;;;5061285;28;20206;-86
2021/01/14 02:03:01;;;;;;;10.03;3.47;;;1.80;99.90;;;;;;5059305;28;20203;-86
2021/01/14 02:05:27;;;;;;;7.30;2.87;;;1.90;99.90;;;;;;5060162;28;20199;-85
2021/01/14 02:08:22;;;;;;;9.03;2.93;;;1.90;99.90;;;;;;5061668;28;20763;-85
2021/01/14 02:11:03;;;;;;;7.47;2.90;;;1.90;99.90;;;;;;5060207;28;20168;-85
2021/01/14 02:13:28;;;;;;;10.43;3.60;;;2.00;99.90;;;;;;5061102;28;20267;-85
2021/01/14 02:16:00;;;;;;;8.13;2.83;;;1.90;99.90;;;;;;5062025;28;20234;-86
2021/01/14 02:18:28;;;;;;;10.07;3.33;;;1.80;99.90;;;;;;5060248;28;20182;-84
2021/01/14 02:20:59;;;;;;;10.77;2.97;;;1.90;99.90;;;;;;5056171;28;20187;-86
2021/01/14 02:23:55;;;;;;;8.07;3.10;;;1.80;99.90;;;;;;5056419;28;20298;-86
2021/01/14 02:26:24;;;;;;;9.60;3.53;;;1.80;99.90;;;;;;5055181;28;20203;-84
2021/01/14 02:28:52;;;;;;;10.13;3.00;;;1.70;99.90;;;;;;5054502;28;20164;-85
2021/01/14 02:31:19;;;;;;;8.80;2.83;;;1.70;99.90;;;;;;5054915;28;20175;-85
2021/01/14 02:33:46;;;;;;;7.53;3.03;;;1.60;99.90;;;;;;5055436;28;20187;-85
2021/01/14 02:36:12;;;;;;;9.40;3.67;;;1.60;99.90;;;;;;5055192;28;20191;-84
2021/01/14 02:38:38;;;;;;;9.37;2.70;;;1.60;99.90;;;;;;5054742;28;20591;-84
2021/01/14 02:41:04;;;;;;;8.97;2.80;;;1.60;99.90;;;;;;5053898;28;20175;-86
2021/01/14 02:43:29;;;;;;;8.03;3.30;;;1.60;99.90;;;;;;5052959;28;20203;-84
2021/01/14 02:45:55;;;;;;;9.90;3.67;;;1.50;99.90;;;;;;5053950;28;20263;-86
2021/01/14 02:48:28;;;;;;;8.90;2.70;;;1.50;99.90;;;;;;5053358;28;20221;-84
2021/01/14 02:50:57;;;;;;;8.63;3.07;;;1.50;99.90;;;;;;5058572;28;20176;-85
2021/01/14 02:53:24;;;;;;;7.67;2.93;;;1.60;99.90;;;;;;5058592;28;20179;-86
2021/01/14 02:55:51;;;;;;;10.00;3.27;;;1.50;99.90;;;;;;5059236;28;20692;-85
2021/01/14 02:58:17;;;;;;;9.47;3.03;;;1.50;99.90;;;;;;5057104;28;20180;-85
2021/01/14 03:00:42;;;;;;;8.10;3.10;;;1.50;99.90;;;;;;5055609;28;20186;-85
2021/01/14 03:03:08;;;;;;;8.13;2.93;;;1.50;99.90;;;;;;5055771;28;20209;-85
2021/01/14 03:05:33;;;;;;;9.40;2.83;;;1.60;99.90;;;;;;5055029;28;20230;-84
2021/01/14 03:07:59;;;;;;;9.80;3.27;;;1.60;99.90;;;;;;5052194;28;20185;-85
2021/01/14 03:10:24;;;;;;;7.87;2.87;;;1.50;99.90;;;;;;5052395;28;20208;-84
2021/01/14 03:12:49;;;;;;;8.60;2.67;;;1.60;99.90;;;;;;5052830;28;20218;-84
2021/01/14 03:15:15;;;;;;;8.00;2.73;;;1.60;99.90;;;;;;5052592;28;20214;-84
2021/01/14 03:17:41;;;;;;;15.93;3.13;;;1.60;99.90;;;;;;5053488;28;20270;-84
2021/01/14 03:20:07;;;;;;;7.77;3.10;;;1.60;99.90;;;;;;5053581;28;20186;-84
2021/01/14 03:22:40;;;;;;;9.47;2.40;;;1.60;99.90;;;;;;5053152;28;20211;-84
2021/01/14 03:25:10;;;;;;;7.60;3.07;;;1.50;99.90;;;;;;5053314;28;20196;-86
2021/01/14 03:27:37;;;;;;;11.17;3.23;;;1.50;99.90;;;;;;5052491;28;20196;-85
2021/01/14 03:30:04;;;;;;;10.70;3.77;;;1.50;99.90;;;;;;5052749;28;20179;-84
2021/01/14 03:32:29;;;;;;;8.93;2.77;;;1.40;99.90;;;;;;5052934;28;20183;-84
2021/01/14 03:34:55;;;;;;;7.70;2.43;;;1.50;99.90;;;;;;5052403;28;20206;-84
2021/01/14 03:37:20;;;;;;;7.03;2.70;;;1.40;99.90;;;;;;5051886;28;20184;-85
2021/01/14 03:39:45;;;;;;;11.40;2.97;;;1.40;99.90;;;;;;5052165;28;20198;-84
2021/01/14 03:42:11;;;;;;;7.90;3.03;;;1.40;99.90;;;;;;5052309;28;20683;-85
2021/01/14 03:44:36;;;;;;;7.80;2.80;;;1.40;99.90;;;;;;5052048;28;20191;-83
2021/01/14 03:47:02;;;;;;;11.00;3.00;;;1.30;99.90;;;;;;5053205;28;20633;-83
2021/01/14 03:49:27;;;;;;;9.33;2.83;;;1.30;99.90;;;;;;5053392;28;20174;-85
2021/01/14 03:51:53;;;;;;;7.17;2.67;;;1.30;99.90;;;;;;5053328;28;20218;-85
2021/01/14 03:54:21;;;;;;;9.53;2.67;;;1.20;99.90;;;;;;5052976;28;20270;-85
2021/01/14 03:56:47;;;;;;;9.40;2.90;;;1.30;99.90;;;;;;5052753;28;20186;-86
2021/01/14 03:59:12;;;;;;;8.50;2.97;;;1.30;99.90;;;;;;5053305;28;20179;-84
2021/01/14 04:01:38;;;;;;;6.87;2.73;;;1.20;99.90;;;;;;5053496;28;20205;-85
2021/01/14 04:04:03;;;;;;;8.97;3.10;;;1.20;99.90;;;;;;5055197;28;20243;-87
2021/01/14 04:06:34;;;;;;;10.07;3.10;;;1.20;99.90;;;;;;5063417;28;20180;-86
2021/01/14 04:09:00;;;;;;;8.03;2.53;;;1.10;99.90;;;;;;5061787;28;20199;-86
2021/01/14 04:11:26;;;;;;;8.57;3.03;;;1.20;99.90;;;;;;5072777;28;20163;-85
2021/01/14 04:13:52;;;;;;;8.17;3.30;;;1.30;99.90;;;;;;5074609;28;20190;-86
2021/01/14 04:16:18;;;;;;;6.93;2.57;;;1.20;99.90;;;;;;5075382;28;20200;-85
2021/01/14 04:18:44;;;;;;;8.03;2.93;;;1.10;99.90;;;;;;5073077;28;20633;-85
2021/01/14 04:21:09;;;;;;;7.10;2.53;;;1.10;99.90;;;;;;5074431;28;20183;-85
2021/01/14 04:23:35;;;;;;;9.60;2.90;;;1.10;99.90;;;;;;5074077;28;20279;-85
2021/01/14 04:26:00;;;;;;;8.67;3.10;;;1.20;99.90;;;;;;5075742;28;20194;-86
2021/01/14 04:28:26;;;;;;;10.17;2.80;;;1.10;99.90;;;;;;5075859;28;20191;-86
2021/01/14 04:30:52;;;;;;;9.10;3.20;;;1.00;99.90;;;;;;5074609;28;20163;-85
2021/01/14 04:33:18;;;;;;;10.37;3.17;;;1.00;99.90;;;;;;5075288;28;20190;-85
2021/01/14 04:35:47;;;;;;;11.67;3.40;;;1.00;99.90;;;;;;5075042;28;20199;-85
2021/01/14 04:38:14;;;;;;;9.83;3.17;;;0.90;99.90;;;;;;5074943;28;20200;-85
2021/01/14 04:40:39;;;;;;;9.90;3.10;;;0.90;99.90;;;;;;5075299;28;20179;-85
2021/01/14 04:43:06;;;;;;;6.00;2.70;;;0.90;99.90;;;;;;5061112;28;20482;-84
2021/01/14 04:45:32;;;;;;;9.50;2.80;;;0.90;99.90;;;;;;5053296;28;20206;-85
2021/01/14 04:48:00;;;;;;;8.03;3.30;;;0.90;99.90;;;;;;5052757;28;20176;-84
2021/01/14 04:50:27;;;;;;;6.93;2.40;;;0.90;99.90;;;;;;5056452;28;20176;-86
2021/01/14 04:52:55;;;;;;;9.03;3.10;;;1.10;99.90;;;;;;5060314;28;20681;-85
2021/01/14 04:55:25;;;;;;;11.90;3.13;;;1.00;99.90;;;;;;5056550;28;20195;-84
2021/01/14 04:57:52;;;;;;;10.17;3.33;;;1.00;99.90;;;;;;5055207;28;20198;-84
2021/01/14 05:00:20;;;;;;;11.30;3.33;;;1.10;99.90;;;;;;5051811;28;20630;-85
2021/01/14 05:03:01;;;;;;;7.60;3.10;;;1.10;99.90;;;;;;5052333;28;20212;-84
2021/01/14 05:05:30;;;;;;;9.27;3.47;;;1.20;99.90;;;;;;5052855;28;20207;-83
2021/01/14 05:08:06;;;;;;;9.13;3.10;;;1.20;99.90;;;;;;5053593;28;20172;-83
2021/01/14 05:10:34;;;;;;;13.83;4.00;;;1.20;99.90;;;;;;5054525;28;20175;-83
2021/01/14 05:13:00;;;;;;;9.13;3.10;;;1.20;99.90;;;;;;5054988;28;20199;-84
2021/01/14 05:15:27;;;;;;;8.97;2.83;;;1.20;99.90;;;;;;5098961;22;20281;-89
2021/01/14 05:17:58;;;;;;;7.83;2.90;;;1.20;99.90;;;;;;5055582;28;20238;-88
2021/01/14 05:20:24;;;;;;;8.27;3.30;;;1.30;99.90;;;;;;5056034;28;20170;-88
2021/01/14 05:22:59;;;;;;;11.63;3.60;;;1.30;99.90;;;;;;5055711;28;20210;-87
2021/01/14 05:25:25;;;;;;;8.77;3.60;;;1.20;99.90;;;;;;5055983;28;20674;-88
2021/01/14 05:27:50;;;;;;;9.37;3.57;;;1.10;99.90;;;;;;5055218;28;20711;-88
2021/01/14 05:30:17;;;;;;;8.90;3.10;;;1.10;99.90;;;;;;5055276;28;20176;-88
2021/01/14 05:32:46;;;;;;;6.97;2.77;;;1.20;99.90;;;;;;5055603;28;20175;-89
2021/01/14 05:35:27;;;;;;;8.87;3.13;;;1.20;99.90;;;;;;5055455;28;20282;-87
2021/01/14 05:38:00;;;;;;;9.30;3.30;;;1.30;99.90;;;;;;5054878;28;20258;-87
2021/01/14 05:40:28;;;;;;;8.83;3.40;;;1.30;99.90;;;;;;5055240;28;20206;-86
2021/01/14 05:43:02;;;;;;;7.43;2.70;;;1.30;99.90;;;;;;5055104;28;20225;-86
2021/01/14 05:45:28;;;;;;;15.37;3.70;;;1.30;99.90;;;;;;5055270;28;20661;-85
2021/01/14 05:48:12;;;;;;;9.77;4.13;;;1.20;99.90;;;;;;5055387;28;20167;-85
2021/01/14 05:50:47;;;;;;;9.30;3.90;;;1.30;99.90;;;;;;5055135;28;20170;-85
2021/01/14 05:53:14;;;;;;;11.70;3.97;;;1.30;99.90;;;;;;5055856;28;20620;-85
2021/01/14 05:55:43;;;;;;;9.27;3.87;;;1.30;99.90;;;;;;5055315;28;20663;-86
2021/01/14 05:58:15;;;;;;;9.70;3.40;;;1.30;99.90;;;;;;5054974;28;20182;-88
2021/01/14 06:00:43;;;;;;;9.33;3.50;;;1.30;99.90;;;;;;5056303;28;20218;-88
2021/01/14 06:03:25;;;;;;;10.53;4.17;;;1.40;99.90;;;;;;5050273;28;20192;-86
2021/01/14 06:05:52;;;;;;;7.37;2.60;;;1.30;99.90;;;;;;5055333;28;20245;-87
2021/01/14 06:08:26;;;;;;;8.73;3.27;;;1.30;99.90;;;;;;5055141;28;20263;-88
2021/01/14 06:10:52;;;;;;;9.77;3.50;;;1.20;99.90;;;;;;5052756;28;20175;-87
2021/01/14 06:13:18;;;;;;;10.47;3.53;;;1.20;99.90;;;;;;5053472;28;20195;-88
2021/01/14 06:15:43;;;;;;;8.77;3.37;;;1.30;99.90;;;;;;5059094;28;20219;-89
2021/01/14 06:18:11;;;;;;;11.70;3.83;;;1.20;99.90;;;;;;5052560;28;20201;-87
2021/01/14 06:20:51;;;;;;;11.10;3.57;;;1.10;99.90;;;;;;5048949;28;20179;-87
2021/01/14 06:23:25;;;;;;;7.83;2.63;;;1.20;99.90;;;;;;5051874;28;20254;-87
2021/01/14 06:25:52;;;;;;;9.17;3.17;;;1.10;99.90;;;;;;5052521;28;20210;-88
2021/01/14 06:28:31;;;;;;;9.20;3.70;;;1.20;99.90;;;;;;5045885;28;20254;-87
2021/01/14 06:31:02;;;;;;;8.53;3.20;;;1.30;99.90;;;;;;5054488;28;20198;-87
2021/01/14 06:33:29;;;;;;;6.23;3.00;;;1.20;99.90;;;;;;5046988;28;20271;-87
2021/01/14 06:36:10;;;;;;;7.87;2.63;;;1.10;99.90;;;;;;5049696;28;20210;-88
2021/01/14 06:38:42;;;;;;;7.30;2.53;;;1.10;99.90;;;;;;5051858;28;20188;-88
2021/01/14 06:41:22;;;;;;;6.27;2.30;;;1.00;99.90;;;;;;5045291;28;20697;-87
2021/01/14 06:43:50;;;;;;;8.30;2.37;;;1.00;99.90;;;;;;5050615;28;20283;-87
2021/01/14 06:46:20;;;;;;;7.60;2.80;;;1.00;99.90;;;;;;5044683;28;20246;-87
2021/01/14 06:49:05;;;;;;;9.27;2.77;;;0.90;99.90;;;;;;5052858;28;20186;-87
2021/01/14 06:51:57;;;;;;;6.07;2.50;;;0.80;99.90;;;;;;5053001;28;21177;-87
2021/01/14 06:54:26;;;;;;;7.77;3.10;;;0.90;99.90;;;;;;5042959;28;20641;-87
2021/01/14 06:56:58;;;;;;;5.60;2.40;;;0.90;99.90;;;;;;5054385;28;20203;-87
2021/01/14 06:59:25;;;;;;;7.17;2.27;;;1.00;99.90;;;;;;5050942;28;20176;-87
2021/01/14 07:02:06;;;;;;;6.20;2.30;;;0.90;99.90;;;;;;5050335;28;20184;-87
2021/01/14 07:04:50;;;;;;;8.67;2.23;;;0.90;99.90;;;;;;5053621;28;20180;-88
2021/01/14 07:07:25;;;;;;;7.67;2.20;;;1.00;99.90;;;;;;5039269;28;20271;-87
2021/01/14 07:10:05;;;;;;;8.13;2.70;;;1.10;99.90;;;;;;5048633;28;20266;-87
2021/01/14 07:12:36;;;;;;;9.30;2.73;;;1.00;99.90;;;;;;5051604;28;20574;-88
2021/01/14 07:15:07;;;;;;;7.60;2.77;;;0.90;99.90;;;;;;5054341;28;20541;-87
2021/01/14 07:17:37;;;;;;;7.20;2.80;;;1.00;99.90;;;;;;5055892;28;20191;-88
2021/01/14 07:20:05;;;;;;;6.47;2.30;;;1.00;99.90;;;;;;5049682;28;20180;-87
2021/01/14 07:22:31;;;;;;;5.03;2.03;;;1.00;99.90;;;;;;5041867;28;20215;-90
2021/01/14 07:25:02;;;;;;;8.63;2.73;;;1.10;99.90;;;;;;5051898;28;20745;-88
2021/01/14 07:27:29;;;;;;;9.00;3.20;;;1.10;99.90;;;;;;5044570;28;20212;-87
2021/01/14 07:29:58;;;;;;;6.60;2.30;;;1.00;99.90;;;;;;5050068;28;20301;-87
2021/01/14 07:32:51;;;;;;;8.03;2.40;;;0.90;99.90;;;;;;5052732;28;20190;-88
2021/01/14 07:35:32;;;;;;;8.80;2.73;;;0.90;99.90;;;;;;5064254;28;20237;-88
2021/01/14 07:37:58;;;;;;;7.43;2.57;;;0.80;99.90;;;;;;5052320;28;20587;-87
2021/01/14 07:40:28;;;;;;;5.97;2.17;;;0.70;99.90;;;;;;5042687;28;20192;-87
2021/01/14 07:42:54;;;;;;;6.53;3.10;;;0.80;99.90;;;;;;5056754;28;20689;-87
2021/01/14 07:45:20;;;;;;;9.30;2.77;;;0.80;99.90;;;;;;5049363;28;20278;-87
2021/01/14 07:48:21;;;;;;;7.07;2.77;;;0.70;99.90;;;;;;5043921;28;20203;-86
2021/01/14 07:50:58;;;;;;;7.77;2.97;;;0.60;99.90;;;;;;5051820;28;20179;-86
2021/01/14 07:53:25;;;;;;;7.10;2.57;;;0.70;99.90;;;;;;5053976;28;20187;-87
2021/01/14 07:55:51;;;;;;;6.23;2.53;;;0.70;99.90;;;;;;5043648;28;20214;-87
2021/01/14 07:58:23;;;;;;;7.20;2.50;;;0.80;99.90;;;;;;5045503;28;20274;-90
2021/01/14 08:01:09;;;;;;;7.23;2.50;;;0.90;99.90;;;;;;5050206;28;20664;-87
2021/01/14 08:03:42;;;;;;;6.13;2.30;;;0.90;99.90;;;;;;5056289;28;20233;-88
2021/01/14 08:06:35;;;;;;;6.57;2.50;;;0.90;99.90;;;;;;5052874;28;20688;-91
2021/01/14 08:09:00;;;;;;;4.57;2.17;;;0.90;99.90;;;;;;5062056;28;20585;-87
2021/01/14 08:11:34;;;;;;;5.10;2.30;;;1.00;99.90;;;;;;5046974;28;20237;-88
2021/01/14 08:14:20;;;;;;;5.20;2.20;;;0.80;99.90;;;;;;5042221;28;20203;-87
2021/01/14 08:16:49;;;;;;;6.27;2.90;;;1.00;99.90;;;;;;5043839;28;20215;-88
2021/01/14 08:19:28;;;;;;;6.00;2.53;;;0.90;99.90;;;;;;5048276;28;20278;-89
2021/01/14 08:22:01;;;;;;;6.20;2.40;;;0.80;99.90;;;;;;5048850;28;20175;-87
2021/01/14 08:24:46;;;;;;;6.23;2.67;;;0.70;99.90;;;;;;5047407;28;20219;-89
2021/01/14 08:27:22;;;;;;;6.27;2.87;;;0.70;99.90;;;;;;5054069;28;20249;-89
2021/01/14 08:30:16;;;;;;;8.97;3.00;;;0.70;99.90;;;;;;5051317;28;20548;-88
2021/01/14 08:32:49;;;;;;;8.10;3.37;;;0.80;99.90;;;;;;5046783;28;20252;-88
2021/01/14 08:35:29;;;;;;;7.53;2.63;;;0.70;99.90;;;;;;5044110;28;20187;-88
2021/01/14 08:38:07;;;;;;;7.97;2.93;;;0.80;99.90;;;;;;5065263;28;20261;-87
2021/01/14 08:40:35;;;;;;;10.30;3.63;;;0.80;99.90;;;;;;5043501;28;20184;-88
2021/01/14 08:43:06;;;;;;;7.80;3.63;;;0.80;99.90;;;;;;5048498;28;20199;-87
2021/01/14 08:45:52;;;;;;;8.00;3.00;;;0.80;99.90;;;;;;5054145;28;20284;-88
2021/01/14 08:48:28;;;;;;;9.53;3.30;;;0.80;99.90;;;;;;5053157;28;20190;-88
2021/01/14 08:50:54;;;;;;;9.43;3.43;;;0.90;99.90;;;;;;5052916;28;20185;-87
2021/01/14 08:53:19;;;;;;;10.40;3.07;;;0.80;99.90;;;;;;5054042;28;20183;-88
2021/01/14 08:56:07;;;;;;;6.80;3.23;;;0.90;99.90;;;;;;5049904;28;20249;-90
2021/01/14 08:58:47;;;;;;;10.53;3.57;;;1.00;99.90;;;;;;5046569;28;20641;-90
2021/01/14 09:01:18;;;;;;;10.20;3.30;;;1.00;99.90;;;;;;5049643;28;20176;-86
2021/01/14 09:03:46;;;;;;;10.00;3.77;;;1.00;99.90;;;;;;5052469;28;20284;-88
2021/01/14 09:06:11;;;;;;;9.63;3.87;;;1.00;99.90;;;;;;5044486;28;20199;-87
2021/01/14 09:08:39;;;;;;;7.97;3.73;;;1.20;99.90;;;;;;5052978;28;20179;-88
2021/01/14 09:11:12;;;;;;;7.97;3.57;;;1.20;99.90;;;;;;5054182;28;20667;-88
2021/01/14 09:13:38;;;;;;;8.93;3.53;;;1.10;99.90;;;;;;5047701;28;20196;-88
2021/01/14 09:16:10;;;;;;;7.23;2.73;;;1.20;99.90;;;;;;5054044;28;20219;-90
2021/01/14 09:18:41;;;;;;;8.87;3.40;;;1.10;99.90;;;;;;5055431;28;20197;-89
2021/01/14 09:21:13;;;;;;;9.13;3.70;;;1.10;99.90;;;;;;5051820;28;20253;-87
2021/01/14 09:23:39;;;;;;;8.10;3.23;;;1.10;99.90;;;;;;5052389;28;20210;-87
2021/01/14 09:26:13;;;;;;;9.87;3.70;;;1.10;99.90;;;;;;5051580;28;20753;-87
2021/01/14 09:28:40;;;;;;;9.27;3.30;;;1.10;99.90;;;;;;5074461;28;20843;-88
2021/01/14 09:31:10;;;;;;;8.97;3.77;;;1.10;99.90;;;;;;5078956;28;20198;-87
2021/01/14 09:33:38;;;;;;;8.90;3.77;;;1.00;99.90;;;;;;5063664;28;20194;-87
2021/01/14 09:36:22;;;;;;;9.70;3.87;;;1.10;99.90;;;;;;5053582;28;20566;-87
2021/01/14 09:38:58;;;;;;;8.87;3.87;;;1.00;99.90;;;;;;5049900;28;20221;-88
2021/01/14 09:41:35;;;;;;;8.10;3.50;;;1.00;99.90;;;;;;5066262;28;20188;-87
2021/01/14 09:44:02;;;;;;;7.13;3.20;;;1.00;99.90;;;;;;5051008;28;20713;-88
2021/01/14 09:46:29;;;;;;;8.93;3.77;;;1.10;99.90;;;;;;5053261;28;20203;-88
2021/01/14 09:49:05;;;;;;;7.80;3.77;;;1.10;99.90;;;;;;5051719;28;20257;-86
2021/01/14 09:51:31;;;;;;;8.40;3.50;;;1.10;99.90;;;;;;5049576;28;20242;-88
2021/01/14 09:54:15;;;;;;;7.50;3.30;;;1.20;99.90;;;;;;5045823;28;20189;-87
2021/01/14 09:56:49;;;;;;;8.17;3.53;;;1.10;99.90;;;;;;5045862;28;20696;-87
2021/01/14 09:59:40;;;;;;;8.97;3.77;;;1.20;99.90;;;;;;5051268;28;20185;-87
2021/01/14 10:02:23;;;;;;;8.73;3.83;;;1.20;99.90;;;;;;5044318;28;20619;-87
2021/01/14 10:04:56;;;;;;;9.90;4.23;;;1.30;99.90;;;;;;5044352;28;20176;-88
2021/01/14 10:07:23;;;;;;;8.53;4.00;;;1.30;99.90;;;;;;5062743;28;20180;-87
2021/01/14 10:09:55;;;;;;;10.00;4.73;;;1.30;99.90;;;;;;5052165;28;20187;-88
2021/01/14 10:12:21;;;;;;;10.87;3.97;;;1.30;99.90;;;;;;5043669;28;20256;-88
2021/01/14 10:14:48;;;;;;;9.00;4.03;;;1.30;99.90;;;;;;5043374;28;20187;-87
2021/01/14 10:17:17;;;;;;;9.27;4.07;;;1.30;99.90;;;;;;5043777;28;20211;-86
2021/01/14 10:19:50;;;;;;;9.57;4.23;;;1.40;99.90;;;;;;5048392;28;20179;-86
2021/01/14 10:22:25;;;;;;;9.17;3.67;;;1.40;99.90;;;;;;5045538;28;20639;-88
2021/01/14 10:25:04;;;;;;;10.37;4.13;;;1.40;99.90;;;;;;5043957;28;20187;-89
2021/01/14 10:28:02;;;;;;;10.57;4.20;;;1.40;99.90;;;;;;5049899;28;20207;-90
2021/01/14 10:30:42;;;;;;;9.33;3.70;;;1.30;99.90;;;;;;5048829;28;20175;-87
2021/01/14 10:33:08;;;;;;;9.00;3.83;;;1.40;99.90;;;;;;5050979;28;20190;-89
2021/01/14 10:35:34;;;;;;;9.10;4.20;;;1.40;99.90;;;;;;5047246;28;20208;-87
2021/01/14 10:38:18;;;;;;;12.70;5.00;;;1.30;99.90;;;;;;5038768;28;20199;-86
2021/01/14 10:40:51;;;;;;;10.60;4.17;;;1.40;99.90;;;;;;5045063;28;20195;-90
2021/01/14 10:43:35;;;;;;;9.67;4.20;;;1.20;99.90;;;;;;5046546;28;20206;-86
2021/01/14 10:46:10;;;;;;;8.90;4.03;;;1.20;99.90;;;;;;5037493;28;20740;-90
2021/01/14 10:48:41;;;;;;;8.37;3.67;;;1.20;99.90;;;;;;5046993;28;20304;-88
2021/01/14 10:51:09;;;;;;;9.73;4.47;;;1.30;99.90;;;;;;5045323;28;20187;-89
2021/01/14 10:53:42;;;;;;;11.47;5.37;;;1.40;99.90;;;;;;5046488;28;20272;-89
2021/01/14 10:56:12;;;;;;;9.00;3.83;;;1.40;99.90;;;;;;5040975;28;20324;-87
2021/01/14 10:58:40;;;;;;;9.77;4.10;;;1.50;99.90;;;;;;5045178;28;20245;-86
2021/01/14 11:01:20;;;;;;;7.97;4.17;;;1.40;99.90;;;;;;5046306;28;20988;-87
2021/01/14 11:03:46;;;;;;;10.33;4.70;;;1.50;99.90;;;;;;5048404;28;20238;-88
2021/01/14 11:06:30;;;;;;;10.60;4.83;;;1.40;99.90;;;;;;5050219;28;20279;-86
2021/01/14 11:09:02;;;;;;;9.03;3.80;;;1.30;99.90;;;;;;5052210;28;20186;-86
2021/01/14 11:11:28;;;;;;;9.43;4.17;;;1.40;99.90;;;;;;5041850;28;20684;-89
2021/01/14 11:13:53;;;;;;;12.00;4.67;;;1.50;99.90;;;;;;5038100;28;20272;-87
2021/01/14 11:39:37;;;;;;;9.97;4.20;;;1.40;99.90;;;;;;5605987;22;20266;-85
2021/01/14 11:42:03;;;;;;;9.53;4.43;;;1.60;99.90;;;;;;5062608;28;20211;-85
2021/01/14 11:44:30;;;;;;;11.67;4.23;;;1.50;99.90;;;;;;5070940;28;20187;-85
2021/01/14 11:46:56;;;;;;;9.13;4.57;;;1.40;99.90;;;;;;5061251;28;20230;-85
2021/01/14 11:49:21;;;;;;;11.70;4.10;;;1.50;99.90;;;;;;5043742;28;20185;-85
2021/01/14 11:51:50;;;;;;;13.20;4.43;;;1.50;99.90;;;;;;5044918;28;20287;-85
2021/01/14 11:54:16;;;;;;;9.10;3.97;;;1.50;99.90;;;;;;5051194;28;20177;-85
2021/01/14 11:56:41;;;;;;;10.13;4.70;;;1.50;99.90;;;;;;5045107;28;20200;-85
2021/01/14 11:59:07;;;;;;;10.43;4.13;;;1.30;99.90;;;;;;5048575;28;20182;-85
2021/01/14 12:01:32;;;;;;;12.80;4.40;;;1.20;99.90;;;;;;5064448;28;20183;-84
2021/01/14 12:03:58;;;;;;;9.10;4.17;;;1.40;99.90;;;;;;5054635;28;20223;-86
2021/01/14 12:06:23;;;;;;;10.43;4.93;;;1.40;99.90;;;;;;5059942;28;20221;-86
2021/01/14 12:08:49;;;;;;;8.93;4.27;;;1.30;99.90;;;;;;5052923;28;20245;-84
2021/01/14 12:11:18;;;;;;;9.90;4.07;;;1.40;99.90;;;;;;5047572;28;20188;-85
2021/01/14 12:13:43;;;;;;;10.43;4.70;;;1.40;99.90;;;;;;5049465;28;20210;-84
2021/01/14 12:16:09;;;;;;;11.93;4.43;;;1.40;99.90;;;;;;5058389;28;20214;-84
2021/01/14 12:18:34;;;;;;;12.27;5.00;;;1.50;99.90;;;;;;5057399;28;20281;-85
2021/01/14 12:21:00;;;;;;;11.27;4.80;;;1.40;99.90;;;;;;5052792;28;20182;-85
2021/01/14 12:23:25;;;;;;;10.17;4.80;;;1.30;99.90;;;;;;5052260;28;20212;-87
2021/01/14 12:25:51;;;;;;;10.07;5.10;;;1.30;99.90;;;;;;5056673;28;20275;-86
2021/01/14 12:28:16;;;;;;;10.97;4.47;;;1.50;99.90;;;;;;5057230;28;20175;-85
2021/01/14 12:30:42;;;;;;;12.40;5.00;;;1.30;99.90;;;;;;5058535;28;20179;-85
2021/01/14 12:33:07;;;;;;;11.67;4.60;;;1.50;99.90;;;;;;5060895;28;20187;-85
2021/01/14 12:35:33;;;;;;;15.90;4.70;;;1.30;99.90;;;;;;5060588;28;20179;-84
2021/01/14 12:37:58;;;;;;;10.83;4.67;;;1.50;99.90;;;;;;5060780;28;20179;-86
2021/01/14 12:40:24;;;;;;;10.70;4.40;;;1.60;99.90;;;;;;5050955;28;20216;-85
2021/01/14 12:42:50;;;;;;;12.63;6.63;;;1.70;99.90;;;;;;5032339;28;20441;-85
2021/01/14 12:45:15;;;;;;;11.13;5.60;;;1.70;99.90;;;;;;5047976;28;20249;-83
2021/01/14 12:47:46;;;;;;;14.70;6.15;;;1.60;99.90;;;;;;5040328;28;20790;-83
2021/01/14 12:50:12;;;;;;;10.90;5.00;;;1.70;99.90;;;;;;5050419;28;20606;-82
2021/01/14 12:52:37;;;;;;;10.30;5.27;;;1.50;99.90;;;;;;5051393;28;20206;-84
2021/01/14 12:55:03;;;;;;;12.33;5.13;;;1.70;99.90;;;;;;5045806;28;20186;-81
2021/01/14 12:57:29;;;;;;;9.30;4.23;;;2.10;99.90;;;;;;5050251;28;20207;-84
2021/01/14 12:59:54;;;;;;;12.27;4.50;;;2.50;99.90;;;;;;5050834;28;20175;-83
2021/01/14 13:02:20;;;;;;;10.53;4.67;;;2.50;99.90;;;;;;5050463;28;20563;-83
2021/01/14 13:04:45;;;;;;;11.20;4.77;;;2.20;99.90;;;;;;5038049;28;20172;-82
2021/01/14 13:07:11;;;;;;;9.87;4.73;;;1.90;99.90;;;;;;5049893;28;20195;-84
2021/01/14 13:09:36;;;;;;;11.13;4.53;;;1.90;99.90;;;;;;5047943;28;20664;-82
2021/01/14 13:12:02;;;;;;;11.27;4.33;;;1.90;99.90;;;;;;5042758;28;20187;-83
2021/01/14 13:14:27;;;;;;;10.20;4.90;;;1.70;99.90;;;;;;5046797;28;20179;-86
2021/01/14 13:16:54;;;;;;;9.57;4.57;;;1.80;99.90;;;;;;5047625;28;20225;-84
2021/01/14 13:19:20;;;;;;;10.53;5.20;;;1.80;99.90;;;;;;5042193;28;20179;-82
2021/01/14 13:21:46;;;;;;;11.40;4.43;;;1.90;99.90;;;;;;5050680;28;20178;-82
2021/01/14 13:24:13;;;;;;;14.83;5.87;;;1.90;99.90;;;;;;5049789;28;20180;-83
2021/01/14 13:26:39;;;;;;;9.93;5.27;;;1.90;99.90;;;;;;5050696;28;20192;-82
2021/01/14 13:29:06;;;;;;;14.40;5.30;;;1.80;99.90;;;;;;5040358;28;20175;-84
2021/01/14 13:32:24;;;;;;;11.13;5.33;;;1.70;99.90;;;;;;5034743;28;20219;-82